Komet — DBBF — position and weather

sailwx.info

Track history (hours):
 
Tides and Currents Weather Stations Pressure Air Temp Water Temp Dewpoint Dewpoint Depression Visibility Wind Speed Wind Dir Waves Ship Positions

Oceanographic research ship Komet (Germany)

Detailed information on ship capabilities available from University of Delaware's Ocean Information Center.

Last reported at 2017-Mar-25 06:24 UTC. Time now 2017-Mar-26 01:48 UTC.
Position N 55°04' E 008°24'.

Length 63 m; draft 3.6 m.

Type: Law enforcement. MMSI: 211282860.

Date/timePositionNaut miles runAvg speedWind from/ knotsBaromVisibWave heightAir tempDewpointWater temp
2017-Mar-25 06:24N 55°04' E 008°24'0 0.0
2017-Mar-25 05:30N 55°04' E 008°23'0 0.0
2017-Mar-25 02:33N 55°04' E 008°23'0 0.0
2017-Mar-25 01:33N 55°04' E 008°23'0 0.0
2017-Mar-25 00:31N 55°04' E 008°23'0 0.1
2017-Mar-24 23:33N 55°04' E 008°24'0 0.0
2017-Mar-24 22:33N 55°04' E 008°24'0 0.0
2017-Mar-24 21:33N 55°04' E 008°24'0 0.0
2017-Mar-24 20:33N 55°04' E 008°24'0 0.0
2017-Mar-24 19:33N 55°04' E 008°24'0 0.0
2017-Mar-24 18:33N 55°04' E 008°24'0 0.0
2017-Mar-24 17:19N 55°04' E 008°23'1 1.2
2017-Mar-24 16:33N 55°04' E 008°22'1 0.7
2017-Mar-24 15:23N 55°04' E 008°21'0 0.0
2017-Mar-24 14:32N 55°04' E 008°21'0 0.0
2017-Mar-24 13:29N 55°04' E 008°21'0 0.0
2017-Mar-24 12:29N 55°04' E 008°21'0 0.0
2017-Mar-24 09:32N 55°04' E 008°21'0 0.0
2017-Mar-24 08:05N 55°04' E 008°21'0 0.0
2017-Mar-24 07:29N 55°04' E 008°21'0 0.0
2017-Mar-24 06:17N 55°04' E 008°21'0 0.0
2017-Mar-24 04:23N 55°04' E 008°21'0 0.0
2017-Mar-24 00:17N 55°04' E 008°21'0 0.0
2017-Mar-23 13:08N 55°04' E 008°21'0 0.0
2017-Mar-23 12:23N 55°04' E 008°21'5 5.9
2017-Mar-23 11:33N 55°00' E 008°26'0 0.1
2017-Mar-23 10:10N 55°00' E 008°26'0 0.0
2017-Mar-23 09:19N 55°00' E 008°26'0 0.0
2017-Mar-23 08:19N 55°00' E 008°26'0 0.0
2017-Mar-23 07:15N 55°00' E 008°26'68 3.1
2017-Mar-22 09:32N 53°54' E 008°02'1312.7
2017-Mar-22 08:33N 53°44' E 008°15'1313.4
2017-Mar-22 07:33N 53°35' E 008°31'4 4.1
2017-Mar-22 06:33N 53°32' E 008°35'0 0.2
2017-Mar-22 05:31N 53°31' E 008°35'0 0.0
2017-Mar-22 04:31N 53°31' E 008°35'0 0.0
2017-Mar-22 03:31N 53°31' E 008°35'0 0.0
2017-Mar-22 02:31N 53°31' E 008°35'0 0.0
2017-Mar-22 01:31N 53°31' E 008°35'0 0.0
2017-Mar-22 00:31N 53°31' E 008°35'0 0.0
2017-Mar-21 23:31N 53°31' E 008°35'0 0.0
2017-Mar-21 22:31N 53°31' E 008°35'0 0.0
2017-Mar-21 21:30N 53°31' E 008°35'0 0.0
2017-Mar-21 20:33N 53°31' E 008°35'0 0.0
2017-Mar-21 19:32N 53°31' E 008°35'0 0.0
2017-Mar-21 18:32N 53°31' E 008°35'0 0.0
2017-Mar-21 17:32N 53°31' E 008°35'0 0.0
2017-Mar-21 16:32N 53°31' E 008°35'0 0.0
2017-Mar-21 15:31N 53°31' E 008°35'0 0.0
2017-Mar-21 14:31N 53°31' E 008°35'0 0.0
2017-Mar-21 13:33N 53°31' E 008°35'0 0.0
2017-Mar-21 12:32N 53°31' E 008°35'0 0.0
2017-Mar-21 11:32N 53°31' E 008°35'0 0.0
2017-Mar-21 10:32N 53°31' E 008°35'0 0.0
2017-Mar-21 09:33N 53°31' E 008°35'0 0.0
2017-Mar-21 08:33N 53°31' E 008°35'0 0.0
2017-Mar-21 07:33N 53°31' E 008°35'0 0.0
2017-Mar-21 06:33N 53°31' E 008°35'0 0.0
2017-Mar-21 05:31N 53°31' E 008°35'0 0.0
2017-Mar-21 04:31N 53°31' E 008°35'0 0.0
2017-Mar-21 03:31N 53°31' E 008°35'0 0.0
2017-Mar-21 02:31N 53°31' E 008°35'0 0.0
2017-Mar-21 01:33N 53°31' E 008°35'0 0.0
2017-Mar-21 00:33N 53°31' E 008°35'0 0.0
2017-Mar-20 23:32N 53°31' E 008°35'0 0.0
2017-Mar-20 22:29N 53°31' E 008°35'0 0.0
2017-Mar-20 21:32N 53°31' E 008°35'0 0.0
2017-Mar-20 20:32N 53°31' E 008°35'0 0.0
2017-Mar-20 19:33N 53°31' E 008°35'0 0.0
2017-Mar-20 18:32N 53°31' E 008°35'0 0.0
2017-Mar-20 17:33N 53°31' E 008°35'0 0.0
2017-Mar-20 16:33N 53°31' E 008°35'0 0.0
2017-Mar-20 15:33N 53°31' E 008°35'0 0.0
2017-Mar-20 14:32N 53°31' E 008°35'0 0.0
2017-Mar-20 13:31N 53°31' E 008°35'0 0.0
2017-Mar-20 12:25N 53°31' E 008°35'0 0.0
2017-Mar-20 11:31N 53°31' E 008°35'0 0.0
2017-Mar-20 10:30N 53°31' E 008°35'0 0.0
2017-Mar-20 09:25N 53°31' E 008°35'0 0.0
2017-Mar-20 08:31N 53°31' E 008°35'0 0.0
2017-Mar-20 07:32N 53°31' E 008°35'0 0.0
2017-Mar-20 06:32N 53°31' E 008°35'0 0.0
2017-Mar-20 05:32N 53°31' E 008°35'0 0.0
2017-Mar-20 04:32N 53°31' E 008°35'0 0.0
2017-Mar-20 03:32N 53°31' E 008°35'0 0.0
2017-Mar-20 02:32N 53°31' E 008°35'0 0.0
2017-Mar-20 01:32N 53°31' E 008°35'0 0.0
2017-Mar-20 00:32N 53°31' E 008°35'0 0.0
2017-Mar-19 23:32N 53°31' E 008°35'0 0.0
2017-Mar-19 22:32N 53°31' E 008°35'0 0.0
2017-Mar-19 21:32N 53°31' E 008°35'0 0.0
2017-Mar-19 20:26N 53°31' E 008°35'0 0.0
2017-Mar-19 19:29N 53°31' E 008°35'0 0.0
2017-Mar-19 18:32N 53°31' E 008°35'0 0.0
2017-Mar-19 17:32N 53°31' E 008°35'0 0.0
2017-Mar-19 16:26N 53°31' E 008°35'0 0.0
2017-Mar-19 15:32N 53°31' E 008°35'0 0.0
2017-Mar-19 14:32N 53°31' E 008°35'0 0.0
2017-Mar-19 13:28N 53°31' E 008°35'0 0.0
2017-Mar-19 12:33N 53°31' E 008°35'0 0.0
2017-Mar-19 11:33N 53°31' E 008°35'0 0.0
2017-Mar-19 10:32N 53°31' E 008°35'0 0.0
2017-Mar-19 09:29N 53°31' E 008°35'0 0.0
2017-Mar-19 08:20N 53°31' E 008°35'0 0.0
2017-Mar-19 07:33N 53°31' E 008°35'0 0.0
2017-Mar-19 06:31N 53°31' E 008°35'0 0.0
2017-Mar-19 05:33N 53°31' E 008°35'0 0.0
2017-Mar-19 04:32N 53°31' E 008°35'0 0.0
2017-Mar-19 03:28N 53°31' E 008°35'0 0.0
2017-Mar-19 02:33N 53°31' E 008°35'0 0.0
2017-Mar-19 01:31N 53°31' E 008°35'0 0.0
2017-Mar-19 00:33N 53°31' E 008°35'0 0.0
2017-Mar-18 23:31N 53°31' E 008°35'0 0.0
2017-Mar-18 22:31N 53°31' E 008°35'0 0.0
2017-Mar-18 21:31N 53°31' E 008°35'0 0.0
2017-Mar-18 20:33N 53°31' E 008°35'0 0.0
2017-Mar-18 19:32N 53°31' E 008°35'0 0.0
2017-Mar-18 18:31N 53°31' E 008°35'0 0.0
2017-Mar-18 17:32N 53°31' E 008°35'0 0.0
2017-Mar-18 16:30N 53°31' E 008°35'0 0.0
2017-Mar-18 15:32N 53°31' E 008°35'0 0.0
2017-Mar-18 14:31N 53°31' E 008°35'0 0.0
2017-Mar-18 13:33N 53°31' E 008°35'0 0.0
2017-Mar-18 12:31N 53°31' E 008°35'0 0.0
2017-Mar-18 11:33N 53°31' E 008°35'0 0.0
2017-Mar-18 10:29N 53°31' E 008°35'0 0.0
2017-Mar-18 09:33N 53°31' E 008°35'0 0.0
2017-Mar-18 08:33N 53°31' E 008°35'0 0.0
2017-Mar-18 07:32N 53°31' E 008°35'0 0.0
2017-Mar-18 06:33N 53°31' E 008°35'0 0.0
2017-Mar-18 05:33N 53°31' E 008°35'0 0.0
2017-Mar-18 04:32N 53°31' E 008°35'0 0.0
2017-Mar-18 03:32N 53°31' E 008°35'0 0.0
2017-Mar-18 02:32N 53°31' E 008°35'0 0.0
2017-Mar-18 01:32N 53°31' E 008°35'0 0.0
2017-Mar-18 00:29N 53°31' E 008°35'0 0.0
2017-Mar-17 23:31N 53°31' E 008°35'0 0.0
2017-Mar-17 22:28N 53°31' E 008°35'0 0.0
2017-Mar-17 21:31N 53°31' E 008°35'0 0.0
2017-Mar-17 20:32N 53°31' E 008°35'0 0.0
2017-Mar-17 19:33N 53°31' E 008°35'0 0.0
2017-Mar-17 18:34N 53°31' E 008°35'0 0.0
2017-Mar-17 17:33N 53°31' E 008°35'0 0.0
2017-Mar-17 16:33N 53°31' E 008°35'0 0.0
2017-Mar-17 15:33N 53°31' E 008°35'0 0.0
2017-Mar-17 14:29N 53°31' E 008°35'0 0.0
2017-Mar-17 13:33N 53°31' E 008°35'0 0.0
2017-Mar-17 12:31N 53°31' E 008°35'0 0.0
2017-Mar-17 11:32N 53°31' E 008°35'0 0.0
2017-Mar-17 10:32N 53°31' E 008°35'0 0.0
2017-Mar-17 09:32N 53°31' E 008°35'0 0.0
2017-Mar-17 08:32N 53°31' E 008°35'0 0.0
2017-Mar-17 07:33N 53°31' E 008°35'0 0.0
2017-Mar-17 06:28N 53°31' E 008°35'0 0.0
2017-Mar-17 05:33N 53°31' E 008°35'0 0.0
2017-Mar-17 04:33N 53°31' E 008°35'0 0.0
2017-Mar-17 03:33N 53°31' E 008°35'0 0.0
2017-Mar-17 02:33N 53°31' E 008°35'0 0.0
2017-Mar-17 01:30N 53°31' E 008°35'0 0.0
2017-Mar-17 00:33N 53°31' E 008°35'0 0.0
2017-Mar-16 23:32N 53°31' E 008°35'0 0.0
2017-Mar-16 22:32N 53°31' E 008°35'0 0.0
2017-Mar-16 21:29N 53°31' E 008°35'0 0.0
2017-Mar-16 20:29N 53°31' E 008°35'0 0.0
2017-Mar-16 19:32N 53°31' E 008°35'0 0.0
2017-Mar-16 18:32N 53°31' E 008°35'0 0.0
2017-Mar-16 17:32N 53°31' E 008°35'0 0.0
2017-Mar-16 16:32N 53°31' E 008°35'0 0.0
2017-Mar-16 15:31N 53°31' E 008°35'0 0.0
2017-Mar-16 14:32N 53°31' E 008°35'0 0.0
2017-Mar-16 13:32N 53°31' E 008°35'0 0.0
2017-Mar-16 12:33N 53°31' E 008°35'0 0.0
2017-Mar-16 11:32N 53°31' E 008°35'0 0.0
2017-Mar-16 10:33N 53°31' E 008°35'0 0.0
2017-Mar-16 09:31N 53°31' E 008°35'0 0.0
2017-Mar-16 08:31N 53°31' E 008°35'0 0.0
2017-Mar-16 07:31N 53°31' E 008°35'0 0.0
2017-Mar-16 06:31N 53°31' E 008°35'0 0.0
2017-Mar-16 05:31N 53°31' E 008°35'0 0.0
2017-Mar-16 04:31N 53°31' E 008°35'0 0.0
2017-Mar-16 03:28N 53°31' E 008°35'0 0.0
2017-Mar-16 02:33N 53°31' E 008°35'0 0.0
2017-Mar-16 01:33N 53°31' E 008°35'0 0.0
2017-Mar-16 00:33N 53°31' E 008°35'0 0.0
2017-Mar-15 23:30N 53°31' E 008°35'0 0.0
2017-Mar-15 22:33N 53°31' E 008°35'0 0.0
2017-Mar-15 21:33N 53°31' E 008°35'0 0.0
2017-Mar-15 20:30N 53°31' E 008°35'0 0.0
2017-Mar-15 19:33N 53°31' E 008°35'0 0.0
2017-Mar-15 18:30N 53°31' E 008°35'0 0.0
2017-Mar-15 17:33N 53°31' E 008°35'0 0.0
2017-Mar-15 16:33N 53°31' E 008°35'0 0.0
2017-Mar-15 15:32N 53°31' E 008°35'0 0.0
2017-Mar-15 14:33N 53°31' E 008°35'0 0.0
2017-Mar-15 13:33N 53°31' E 008°35'0 0.4
2017-Mar-15 12:33N 53°32' E 008°35'2 2.0
2017-Mar-15 11:33N 53°33' E 008°33'1414.4
2017-Mar-15 10:33N 53°43' E 008°15'1414.4
2017-Mar-15 09:33N 53°54' E 007°60'1110.6
2017-Mar-15 08:33N 54°04' E 008°07'1312.4
2017-Mar-15 07:32N 54°06' E 008°28'  
Track history (hours):
 
Tides and Currents Weather Stations Pressure Air Temp Water Temp Dewpoint Dewpoint Depression Visibility Wind Speed Wind Dir Waves Ship Positions

Oceanographic research ship Komet (Germany)

Detailed information on ship capabilities available from University of Delaware's Ocean Information Center.

Last reported at 2017-Mar-25 06:24 UTC. Time now 2017-Mar-26 01:48 UTC.
Position N 55°04' E 008°24'.

Length 63 m; draft 3.6 m.

Type: Law enforcement. MMSI: 211282860.

Date/timePositionNaut miles runAvg speedWind from/ knotsBaromVisibWave heightAir tempDewpointWater temp
2017-Mar-25 06:24N 55°04' E 008°24'0 0.0
2017-Mar-25 05:30N 55°04' E 008°23'0 0.0
2017-Mar-25 02:33N 55°04' E 008°23'0 0.0
2017-Mar-25 01:33N 55°04' E 008°23'0 0.0
2017-Mar-25 00:31N 55°04' E 008°23'0 0.1
2017-Mar-24 23:33N 55°04' E 008°24'0 0.0
2017-Mar-24 22:33N 55°04' E 008°24'0 0.0
2017-Mar-24 21:33N 55°04' E 008°24'0 0.0
2017-Mar-24 20:33N 55°04' E 008°24'0 0.0
2017-Mar-24 19:33N 55°04' E 008°24'0 0.0
2017-Mar-24 18:33N 55°04' E 008°24'0 0.0
2017-Mar-24 17:19N 55°04' E 008°23'1 1.2
2017-Mar-24 16:33N 55°04' E 008°22'1 0.7
2017-Mar-24 15:23N 55°04' E 008°21'0 0.0
2017-Mar-24 14:32N 55°04' E 008°21'0 0.0
2017-Mar-24 13:29N 55°04' E 008°21'0 0.0
2017-Mar-24 12:29N 55°04' E 008°21'0 0.0
2017-Mar-24 09:32N 55°04' E 008°21'0 0.0
2017-Mar-24 08:05N 55°04' E 008°21'0 0.0
2017-Mar-24 07:29N 55°04' E 008°21'0 0.0
2017-Mar-24 06:17N 55°04' E 008°21'0 0.0
2017-Mar-24 04:23N 55°04' E 008°21'0 0.0
2017-Mar-24 00:17N 55°04' E 008°21'0 0.0
2017-Mar-23 13:08N 55°04' E 008°21'0 0.0
2017-Mar-23 12:23N 55°04' E 008°21'5 5.9
2017-Mar-23 11:33N 55°00' E 008°26'0 0.1
2017-Mar-23 10:10N 55°00' E 008°26'0 0.0
2017-Mar-23 09:19N 55°00' E 008°26'0 0.0
2017-Mar-23 08:19N 55°00' E 008°26'0 0.0
2017-Mar-23 07:15N 55°00' E 008°26'68 3.1
2017-Mar-22 09:32N 53°54' E 008°02'1312.7
2017-Mar-22 08:33N 53°44' E 008°15'1313.4
2017-Mar-22 07:33N 53°35' E 008°31'4 4.1
2017-Mar-22 06:33N 53°32' E 008°35'0 0.2
2017-Mar-22 05:31N 53°31' E 008°35'0 0.0
2017-Mar-22 04:31N 53°31' E 008°35'0 0.0
2017-Mar-22 03:31N 53°31' E 008°35'0 0.0
2017-Mar-22 02:31N 53°31' E 008°35'0 0.0
2017-Mar-22 01:31N 53°31' E 008°35'0 0.0
2017-Mar-22 00:31N 53°31' E 008°35'0 0.0
2017-Mar-21 23:31N 53°31' E 008°35'0 0.0
2017-Mar-21 22:31N 53°31' E 008°35'0 0.0
2017-Mar-21 21:30N 53°31' E 008°35'0 0.0
2017-Mar-21 20:33N 53°31' E 008°35'0 0.0
2017-Mar-21 19:32N 53°31' E 008°35'0 0.0
2017-Mar-21 18:32N 53°31' E 008°35'0 0.0
2017-Mar-21 17:32N 53°31' E 008°35'0 0.0
2017-Mar-21 16:32N 53°31' E 008°35'0 0.0
2017-Mar-21 15:31N 53°31' E 008°35'0 0.0
2017-Mar-21 14:31N 53°31' E 008°35'0 0.0
2017-Mar-21 13:33N 53°31' E 008°35'0 0.0
2017-Mar-21 12:32N 53°31' E 008°35'0 0.0
2017-Mar-21 11:32N 53°31' E 008°35'0 0.0
2017-Mar-21 10:32N 53°31' E 008°35'0 0.0
2017-Mar-21 09:33N 53°31' E 008°35'0 0.0
2017-Mar-21 08:33N 53°31' E 008°35'0 0.0
2017-Mar-21 07:33N 53°31' E 008°35'0 0.0
2017-Mar-21 06:33N 53°31' E 008°35'0 0.0
2017-Mar-21 05:31N 53°31' E 008°35'0 0.0
2017-Mar-21 04:31N 53°31' E 008°35'0 0.0
2017-Mar-21 03:31N 53°31' E 008°35'0 0.0
2017-Mar-21 02:31N 53°31' E 008°35'0 0.0
2017-Mar-21 01:33N 53°31' E 008°35'0 0.0
2017-Mar-21 00:33N 53°31' E 008°35'0 0.0
2017-Mar-20 23:32N 53°31' E 008°35'0 0.0
2017-Mar-20 22:29N 53°31' E 008°35'0 0.0
2017-Mar-20 21:32N 53°31' E 008°35'0 0.0
2017-Mar-20 20:32N 53°31' E 008°35'0 0.0
2017-Mar-20 19:33N 53°31' E 008°35'0 0.0
2017-Mar-20 18:32N 53°31' E 008°35'0 0.0
2017-Mar-20 17:33N 53°31' E 008°35'0 0.0
2017-Mar-20 16:33N 53°31' E 008°35'0 0.0
2017-Mar-20 15:33N 53°31' E 008°35'0 0.0
2017-Mar-20 14:32N 53°31' E 008°35'0 0.0
2017-Mar-20 13:31N 53°31' E 008°35'0 0.0
2017-Mar-20 12:25N 53°31' E 008°35'0 0.0
2017-Mar-20 11:31N 53°31' E 008°35'0 0.0
2017-Mar-20 10:30N 53°31' E 008°35'0 0.0
2017-Mar-20 09:25N 53°31' E 008°35'0 0.0
2017-Mar-20 08:31N 53°31' E 008°35'0 0.0
2017-Mar-20 07:32N 53°31' E 008°35'0 0.0
2017-Mar-20 06:32N 53°31' E 008°35'0 0.0
2017-Mar-20 05:32N 53°31' E 008°35'0 0.0
2017-Mar-20 04:32N 53°31' E 008°35'0 0.0
2017-Mar-20 03:32N 53°31' E 008°35'0 0.0
2017-Mar-20 02:32N 53°31' E 008°35'0 0.0
2017-Mar-20 01:32N 53°31' E 008°35'0 0.0
2017-Mar-20 00:32N 53°31' E 008°35'0 0.0
2017-Mar-19 23:32N 53°31' E 008°35'0 0.0
2017-Mar-19 22:32N 53°31' E 008°35'0 0.0
2017-Mar-19 21:32N 53°31' E 008°35'0 0.0
2017-Mar-19 20:26N 53°31' E 008°35'0 0.0
2017-Mar-19 19:29N 53°31' E 008°35'0 0.0
2017-Mar-19 18:32N 53°31' E 008°35'0 0.0
2017-Mar-19 17:32N 53°31' E 008°35'0 0.0
2017-Mar-19 16:26N 53°31' E 008°35'0 0.0
2017-Mar-19 15:32N 53°31' E 008°35'0 0.0
2017-Mar-19 14:32N 53°31' E 008°35'0 0.0
2017-Mar-19 13:28N 53°31' E 008°35'0 0.0
2017-Mar-19 12:33N 53°31' E 008°35'0 0.0
2017-Mar-19 11:33N 53°31' E 008°35'0 0.0
2017-Mar-19 10:32N 53°31' E 008°35'0 0.0
2017-Mar-19 09:29N 53°31' E 008°35'0 0.0
2017-Mar-19 08:20N 53°31' E 008°35'0 0.0
2017-Mar-19 07:33N 53°31' E 008°35'0 0.0
2017-Mar-19 06:31N 53°31' E 008°35'0 0.0
2017-Mar-19 05:33N 53°31' E 008°35'0 0.0
2017-Mar-19 04:32N 53°31' E 008°35'0 0.0
2017-Mar-19 03:28N 53°31' E 008°35'0 0.0
2017-Mar-19 02:33N 53°31' E 008°35'0 0.0
2017-Mar-19 01:31N 53°31' E 008°35'0 0.0
2017-Mar-19 00:33N 53°31' E 008°35'0 0.0
2017-Mar-18 23:31N 53°31' E 008°35'0 0.0
2017-Mar-18 22:31N 53°31' E 008°35'0 0.0
2017-Mar-18 21:31N 53°31' E 008°35'0 0.0
2017-Mar-18 20:33N 53°31' E 008°35'0 0.0
2017-Mar-18 19:32N 53°31' E 008°35'0 0.0
2017-Mar-18 18:31N 53°31' E 008°35'0 0.0
2017-Mar-18 17:32N 53°31' E 008°35'0 0.0
2017-Mar-18 16:30N 53°31' E 008°35'0 0.0
2017-Mar-18 15:32N 53°31' E 008°35'0 0.0
2017-Mar-18 14:31N 53°31' E 008°35'0 0.0
2017-Mar-18 13:33N 53°31' E 008°35'0 0.0
2017-Mar-18 12:31N 53°31' E 008°35'0 0.0
2017-Mar-18 11:33N 53°31' E 008°35'0 0.0
2017-Mar-18 10:29N 53°31' E 008°35'0 0.0
2017-Mar-18 09:33N 53°31' E 008°35'0 0.0
2017-Mar-18 08:33N 53°31' E 008°35'0 0.0
2017-Mar-18 07:32N 53°31' E 008°35'0 0.0
2017-Mar-18 06:33N 53°31' E 008°35'0 0.0
2017-Mar-18 05:33N 53°31' E 008°35'0 0.0
2017-Mar-18 04:32N 53°31' E 008°35'0 0.0
2017-Mar-18 03:32N 53°31' E 008°35'0 0.0
2017-Mar-18 02:32N 53°31' E 008°35'0 0.0
2017-Mar-18 01:32N 53°31' E 008°35'0 0.0
2017-Mar-18 00:29N 53°31' E 008°35'0 0.0
2017-Mar-17 23:31N 53°31' E 008°35'0 0.0
2017-Mar-17 22:28N 53°31' E 008°35'0 0.0
2017-Mar-17 21:31N 53°31' E 008°35'0 0.0
2017-Mar-17 20:32N 53°31' E 008°35'0 0.0
2017-Mar-17 19:33N 53°31' E 008°35'0 0.0
2017-Mar-17 18:34N 53°31' E 008°35'0 0.0
2017-Mar-17 17:33N 53°31' E 008°35'0 0.0
2017-Mar-17 16:33N 53°31' E 008°35'0 0.0
2017-Mar-17 15:33N 53°31' E 008°35'0 0.0
2017-Mar-17 14:29N 53°31' E 008°35'0 0.0
2017-Mar-17 13:33N 53°31' E 008°35'0 0.0
2017-Mar-17 12:31N 53°31' E 008°35'0 0.0
2017-Mar-17 11:32N 53°31' E 008°35'0 0.0
2017-Mar-17 10:32N 53°31' E 008°35'0 0.0
2017-Mar-17 09:32N 53°31' E 008°35'0 0.0
2017-Mar-17 08:32N 53°31' E 008°35'0 0.0
2017-Mar-17 07:33N 53°31' E 008°35'0 0.0
2017-Mar-17 06:28N 53°31' E 008°35'0 0.0
2017-Mar-17 05:33N 53°31' E 008°35'0 0.0
2017-Mar-17 04:33N 53°31' E 008°35'0 0.0
2017-Mar-17 03:33N 53°31' E 008°35'0 0.0
2017-Mar-17 02:33N 53°31' E 008°35'0 0.0
2017-Mar-17 01:30N 53°31' E 008°35'0 0.0
2017-Mar-17 00:33N 53°31' E 008°35'0 0.0
2017-Mar-16 23:32N 53°31' E 008°35'0 0.0
2017-Mar-16 22:32N 53°31' E 008°35'0 0.0
2017-Mar-16 21:29N 53°31' E 008°35'0 0.0
2017-Mar-16 20:29N 53°31' E 008°35'0 0.0
2017-Mar-16 19:32N 53°31' E 008°35'0 0.0
2017-Mar-16 18:32N 53°31' E 008°35'0 0.0
2017-Mar-16 17:32N 53°31' E 008°35'0 0.0
2017-Mar-16 16:32N 53°31' E 008°35'0 0.0
2017-Mar-16 15:31N 53°31' E 008°35'0 0.0
2017-Mar-16 14:32N 53°31' E 008°35'0 0.0
2017-Mar-16 13:32N 53°31' E 008°35'0 0.0
2017-Mar-16 12:33N 53°31' E 008°35'0 0.0
2017-Mar-16 11:32N 53°31' E 008°35'0 0.0
2017-Mar-16 10:33N 53°31' E 008°35'0 0.0
2017-Mar-16 09:31N 53°31' E 008°35'0 0.0
2017-Mar-16 08:31N 53°31' E 008°35'0 0.0
2017-Mar-16 07:31N 53°31' E 008°35'0 0.0
2017-Mar-16 06:31N 53°31' E 008°35'0 0.0
2017-Mar-16 05:31N 53°31' E 008°35'0 0.0
2017-Mar-16 04:31N 53°31' E 008°35'0 0.0
2017-Mar-16 03:28N 53°31' E 008°35'0 0.0
2017-Mar-16 02:33N 53°31' E 008°35'0 0.0
2017-Mar-16 01:33N 53°31' E 008°35'0 0.0
2017-Mar-16 00:33N 53°31' E 008°35'0 0.0
2017-Mar-15 23:30N 53°31' E 008°35'0 0.0
2017-Mar-15 22:33N 53°31' E 008°35'0 0.0
2017-Mar-15 21:33N 53°31' E 008°35'0 0.0
2017-Mar-15 20:30N 53°31' E 008°35'0 0.0
2017-Mar-15 19:33N 53°31' E 008°35'0 0.0
2017-Mar-15 18:30N 53°31' E 008°35'0 0.0
2017-Mar-15 17:33N 53°31' E 008°35'0 0.0
2017-Mar-15 16:33N 53°31' E 008°35'0 0.0
2017-Mar-15 15:32N 53°31' E 008°35'0 0.0
2017-Mar-15 14:33N 53°31' E 008°35'0 0.0
2017-Mar-15 13:33N 53°31' E 008°35'0 0.4
2017-Mar-15 12:33N 53°32' E 008°35'2 2.0
2017-Mar-15 11:33N 53°33' E 008°33'1414.4
2017-Mar-15 10:33N 53°43' E 008°15'1414.4
2017-Mar-15 09:33N 53°54' E 007°60'1110.6
2017-Mar-15 08:33N 54°04' E 008°07'1312.4
2017-Mar-15 07:32N 54°06' E 008°28'  

Dump ship's entire track history